Wetterdaten: Woche 10.03.14 - 16.03.14 (KW11)
Datum Zeit Temp. A. Feuchte A. Luftdruck Regen Wind Richtung Sonnenschein ET UV Solar Taupunkt Windchill Windben
10.03.2014 00:00 3,5 C 74 % 1030,0 hPa 0,0 l/m 0,5 km/h (0 Bft) O-NO 0,00 h 0,025 mm 0,0 UV-I 0 W/m -0,7 C 3,5 C 1,4 km/h (1 Bft)
10.03.2014 01:00 1,5 C 82 % 1029,7 hPa 0,0 l/m 0,5 km/h (0 Bft) NO 0,00 h 0,025 mm 0,0 UV-I 0 W/m -1,3 C 1,5 C 1,3 km/h (1 Bft)
10.03.2014 02:00 0,5 C 87 % 1029,1 hPa 0,0 l/m 0,5 km/h (0 Bft) NW 0,00 h 0,000 mm 0,0 UV-I 0 W/m -1,5 C 0,5 C 1,2 km/h (1 Bft)
10.03.2014 03:00 -0,4 C 88 % 1028,5 hPa 0,0 l/m 0,0 km/h (0 Bft) N 0,00 h 0,000 mm 0,0 UV-I 0 W/m -2,1 C -0,4 C 0,5 km/h (0 Bft)
10.03.2014 04:00 -1,0 C 89 % 1028,2 hPa 0,0 l/m 0,2 km/h (0 Bft) NW 0,00 h 0,000 mm 0,0 UV-I 0 W/m -2,6 C -1,0 C 0,6 km/h (0 Bft)
10.03.2014 05:00 -1,2 C 91 % 1027,9 hPa 0,0 l/m 1,9 km/h (1 Bft) NW 0,00 h 0,000 mm 0,0 UV-I 0 W/m -2,5 C -1,2 C 3,3 km/h (1 Bft)
10.03.2014 06:00 -0,7 C 90 % 1027,7 hPa 0,0 l/m 3,1 km/h (1 Bft) NW 0,00 h 0,000 mm 0,0 UV-I 9 W/m -2,0 C -0,7 C 4,7 km/h (1 Bft)
10.03.2014 07:00 1,0 C 84 % 1027,3 hPa 0,0 l/m 2,6 km/h (1 Bft) N-NW 0,40 h 0,000 mm 0,0 UV-I 59 W/m -1,4 C 1,0 C 4,4 km/h (1 Bft)
10.03.2014 08:00 6,8 C 62 % 1027,1 hPa 0,0 l/m 5,2 km/h (1 Bft) O-NO 1,00 h 0,025 mm 0,8 UV-I 271 W/m 0,0 C 6,2 C 8,7 km/h (2 Bft)
10.03.2014 09:00 9,3 C 55 % 1026,8 hPa 0,0 l/m 4,2 km/h (1 Bft) O-NO 1,00 h 0,127 mm 1,4 UV-I 374 W/m 0,8 C 9,0 C 8,5 km/h (2 Bft)
10.03.2014 10:00 10,4 C 53 % 1026,5 hPa 0,0 l/m 7,1 km/h (2 Bft) O 1,00 h 0,178 mm 1,8 UV-I 311 W/m 1,1 C 9,6 C 13,1 km/h (3 Bft)
10.03.2014 11:00 11,9 C 49 % 1025,9 hPa 0,0 l/m 7,5 km/h (2 Bft) SO 1,00 h 0,203 mm 2,4 UV-I 463 W/m 1,5 C 10,8 C 13,5 km/h (3 Bft)
10.03.2014 12:00 12,7 C 45 % 1025,3 hPa 0,0 l/m 8,4 km/h (2 Bft) SO 1,00 h 0,254 mm 2,2 UV-I 337 W/m 1,1 C 11,3 C 14,4 km/h (3 Bft)
10.03.2014 13:00 13,6 C 41 % 1024,7 hPa 0,0 l/m 7,1 km/h (2 Bft) O-SO 1,00 h 0,203 mm 2,2 UV-I 409 W/m 0,5 C 12,8 C 12,8 km/h (3 Bft)
10.03.2014 14:00 14,0 C 37 % 1024,3 hPa 0,0 l/m 7,3 km/h (2 Bft) O 1,00 h 0,254 mm 1,9 UV-I 496 W/m -0,3 C 13,0 C 12,5 km/h (3 Bft)
10.03.2014 15:00 14,0 C 36 % 1024,1 hPa 0,0 l/m 8,1 km/h (2 Bft) O-NO 1,00 h 0,305 mm 1,1 UV-I 355 W/m -0,7 C 12,9 C 14,1 km/h (3 Bft)
10.03.2014 16:00 13,6 C 34 % 1024,0 hPa 0,0 l/m 8,0 km/h (2 Bft) O-NO 1,00 h 0,254 mm 0,6 UV-I 207 W/m -1,9 C 12,5 C 13,9 km/h (3 Bft)
10.03.2014 17:00 12,5 C 37 % 1024,0 hPa 0,0 l/m 3,2 km/h (1 Bft) O-NO 0,38 h 0,178 mm 0,0 UV-I 42 W/m -1,7 C 12,5 C 6,3 km/h (2 Bft)
10.03.2014 18:00 10,2 C 45 % 1024,1 hPa 0,0 l/m 1,4 km/h (1 Bft) NO 0,00 h 0,051 mm 0,0 UV-I 5 W/m -1,4 C 10,2 C 3,1 km/h (1 Bft)
10.03.2014 19:00 7,7 C 55 % 1024,7 hPa 0,0 l/m 2,5 km/h (1 Bft) O-NO 0,00 h 0,025 mm 0,0 UV-I 0 W/m -0,7 C 7,6 C 5,1 km/h (1 Bft)
10.03.2014 20:00 7,3 C 57 % 1025,0 hPa 0,0 l/m 5,4 km/h (1 Bft) O 0,00 h 0,025 mm 0,0 UV-I 0 W/m -0,8 C 6,9 C 10,1 km/h (2 Bft)
10.03.2014 21:00 6,7 C 58 % 1025,1 hPa 0,0 l/m 5,4 km/h (1 Bft) O 0,00 h 0,051 mm 0,0 UV-I 0 W/m -0,8 C 6,2 C 9,4 km/h (2 Bft)
10.03.2014 22:00 6,3 C 59 % 1025,3 hPa 0,0 l/m 2,5 km/h (1 Bft) O-NO 0,00 h 0,051 mm 0,0 UV-I 0 W/m -1,2 C 6,2 C 5,1 km/h (1 Bft)
10.03.2014 23:00 4,1 C 68 % 1025,6 hPa 0,0 l/m 0,3 km/h (0 Bft) N-NO 0,00 h 0,025 mm 0,0 UV-I 0 W/m -1,3 C 4,1 C 1,0 km/h (0 Bft)
11.03.2014 00:00 2,8 C 72 % 1025,5 hPa 0,0 l/m 1,4 km/h (1 Bft) N-NO 0,00 h 0,025 mm 0,0 UV-I 0 W/m -1,8 C 2,8 C 2,9 km/h (1 Bft)
11.03.2014 01:00 1,1 C 77 % 1025,7 hPa 0,0 l/m 0,0 km/h (0 Bft) NO 0,00 h 0,025 mm 0,0 UV-I 0 W/m -2,4 C 1,1 C 0,0 km/h (0 Bft)
11.03.2014 02:00 -0,1 C 83 % 1026,1 hPa 0,0 l/m 0,3 km/h (0 Bft) N-NO 0,00 h 0,000 mm 0,0 UV-I 0 W/m -2,6 C -0,1 C 0,9 km/h (0 Bft)
11.03.2014 03:00 -0,8 C 86 % 1026,4 hPa 0,0 l/m 0,2 km/h (0 Bft) O 0,00 h 0,000 mm 0,0 UV-I 0 W/m -2,8 C -0,8 C 0,5 km/h (0 Bft)
11.03.2014 04:00 -1,5 C 88 % 1026,7 hPa 0,0 l/m 0,6 km/h (0 Bft) SO 0,00 h 0,000 mm 0,0 UV-I 0 W/m -3,2 C -1,5 C 1,3 km/h (1 Bft)
11.03.2014 05:00 -1,8 C 89 % 1027,2 hPa 0,0 l/m 0,7 km/h (0 Bft) NW 0,00 h 0,000 mm 0,0 UV-I 0 W/m -3,4 C -1,8 C 1,6 km/h (1 Bft)
11.03.2014 06:00 -2,3 C 89 % 1027,8 hPa 0,0 l/m 0,1 km/h (0 Bft) NW 0,00 h 0,000 mm 0,0 UV-I 9 W/m -3,8 C -2,3 C 0,3 km/h (0 Bft)
11.03.2014 07:00 -1,7 C 89 % 1028,4 hPa 0,0 l/m 0,0 km/h (0 Bft) N 0,38 h 0,000 mm 0,0 UV-I 69 W/m -3,2 C -1,7 C 0,2 km/h (0 Bft)
11.03.2014 08:00 4,2 C 68 % 1029,0 hPa 0,0 l/m 0,9 km/h (0 Bft) N-NW 1,00 h 0,025 mm 0,8 UV-I 284 W/m -1,2 C 4,2 C 1,9 km/h (1 Bft)
11.03.2014 09:00 8,3 C 54 % 1029,2 hPa 0,0 l/m 1,9 km/h (1 Bft) N-NW 1,00 h 0,127 mm 1,4 UV-I 402 W/m -0,5 C 8,3 C 3,4 km/h (1 Bft)
11.03.2014 10:00 10,8 C 39 % 1029,2 hPa 0,0 l/m 2,3 km/h (1 Bft) W-NW 1,00 h 0,178 mm 1,9 UV-I 329 W/m -2,6 C 10,8 C 4,4 km/h (1 Bft)
11.03.2014 11:00 12,3 C 35 % 1029,3 hPa 0,0 l/m 7,5 km/h (2 Bft) NW 1,00 h 0,178 mm 2,5 UV-I 466 W/m -2,6 C 11,5 C 10,7 km/h (2 Bft)
11.03.2014 12:00 14,1 C 34 % 1029,1 hPa 0,0 l/m 5,3 km/h (1 Bft) N-NW 1,00 h 0,279 mm 2,2 UV-I 347 W/m -1,6 C 13,7 C 8,3 km/h (2 Bft)
11.03.2014 13:00 16,1 C 33 % 1028,4 hPa 0,0 l/m 4,8 km/h (1 Bft) NO 1,00 h 0,229 mm 2,2 UV-I 407 W/m -0,1 C 15,9 C 8,4 km/h (2 Bft)
11.03.2014 14:00 17,4 C 30 % 1028,2 hPa 0,0 l/m 6,0 km/h (2 Bft) N-NO 1,00 h 0,254 mm 1,9 UV-I 493 W/m -0,4 C 16,9 C 10,0 km/h (2 Bft)
11.03.2014 15:00 17,4 C 26 % 1028,0 hPa 0,0 l/m 5,4 km/h (1 Bft) O 1,00 h 0,330 mm 1,0 UV-I 354 W/m -2,5 C 17,2 C 10,2 km/h (2 Bft)
11.03.2014 16:00 16,4 C 30 % 1028,2 hPa 0,0 l/m 3,0 km/h (1 Bft) O 1,00 h 0,254 mm 0,6 UV-I 188 W/m -1,5 C 16,4 C 6,4 km/h (2 Bft)
11.03.2014 17:00 15,4 C 29 % 1028,7 hPa 0,0 l/m 2,8 km/h (1 Bft) O-NO 0,40 h 0,127 mm 0,0 UV-I 43 W/m -2,4 C 15,4 C 5,8 km/h (2 Bft)
11.03.2014 18:00 12,9 C 36 % 1029,6 hPa 0,0 l/m 3,9 km/h (1 Bft) N-NO 0,00 h 0,051 mm 0,0 UV-I 6 W/m -1,8 C 12,9 C 6,4 km/h (2 Bft)
11.03.2014 19:00 9,6 C 48 % 1030,3 hPa 0,0 l/m 1,8 km/h (1 Bft) N-NO 0,00 h 0,051 mm 0,0 UV-I 0 W/m -0,8 C 9,6 C 3,9 km/h (1 Bft)
11.03.2014 20:00 7,1 C 58 % 1031,1 hPa 0,0 l/m 2,5 km/h (1 Bft) N 0,00 h 0,051 mm 0,0 UV-I 0 W/m -0,7 C 7,1 C 4,0 km/h (1 Bft)
11.03.2014 21:00 6,4 C 65 % 1031,6 hPa 0,0 l/m 4,2 km/h (1 Bft) N-NO 0,00 h 0,025 mm 0,0 UV-I 0 W/m 0,2 C 6,3 C 6,8 km/h (2 Bft)
11.03.2014 22:00 5,0 C 68 % 1031,9 hPa 0,0 l/m 1,6 km/h (1 Bft) W 0,00 h 0,025 mm 0,0 UV-I 0 W/m -0,4 C 5,0 C 3,0 km/h (1 Bft)
11.03.2014 23:00 2,9 C 76 % 1032,3 hPa 0,0 l/m 0,3 km/h (0 Bft) W-NW 0,00 h 0,025 mm 0,0 UV-I 0 W/m -1,0 C 2,9 C 0,8 km/h (0 Bft)
12.03.2014 00:00 1,2 C 81 % 1032,4 hPa 0,0 l/m 0,9 km/h (0 Bft) O-SO 0,00 h 0,025 mm 0,0 UV-I 0 W/m -1,7 C 1,2 C 2,5 km/h (1 Bft)
12.03.2014 01:00 1,1 C 83 % 1032,3 hPa 0,0 l/m 3,0 km/h (1 Bft) NO 0,00 h 0,000 mm 0,0 UV-I 0 W/m -1,5 C 1,1 C 4,8 km/h (1 Bft)
12.03.2014 02:00 4,8 C 62 % 1032,0 hPa 0,0 l/m 6,8 km/h (2 Bft) O-NO 0,00 h 0,000 mm 0,0 UV-I 0 W/m -1,8 C 3,9 C 11,6 km/h (2 Bft)
12.03.2014 03:00 5,1 C 58 % 1031,8 hPa 0,0 l/m 4,1 km/h (1 Bft) NO 0,00 h 0,051 mm 0,0 UV-I 0 W/m -2,3 C 5,1 C 7,8 km/h (2 Bft)
12.03.2014 04:00 3,9 C 66 % 1031,8 hPa 0,0 l/m 3,0 km/h (1 Bft) N-NO 0,00 h 0,000 mm 0,0 UV-I 0 W/m -2,0 C 3,9 C 4,8 km/h (1 Bft)
12.03.2014 05:00 1,6 C 76 % 1031,9 hPa 0,0 l/m 3,0 km/h (1 Bft) N-NW 0,00 h 0,025 mm 0,0 UV-I 0 W/m -2,3 C 1,6 C 4,3 km/h (1 Bft)
12.03.2014 06:00 -0,0 C 81 % 1032,3 hPa 0,0 l/m 1,0 km/h (0 Bft) N-NW 0,00 h 0,025 mm 0,0 UV-I 10 W/m -2,8 C -0,0 C 2,1 km/h (1 Bft)
12.03.2014 07:00 -0,1 C 85 % 1032,6 hPa 0,0 l/m 0,0 km/h (0 Bft) N 0,45 h 0,000 mm 0,0 UV-I 69 W/m -2,3 C -0,1 C 0,5 km/h (0 Bft)
12.03.2014 08:00 4,4 C 74 % 1032,7 hPa 0,0 l/m 1,1 km/h (1 Bft) N-NW 1,00 h 0,025 mm 0,7 UV-I 259 W/m 0,1 C 4,4 C 2,2 km/h (1 Bft)
12.03.2014 09:00 9,2 C 57 % 1032,8 hPa 0,0 l/m 2,0 km/h (1 Bft) N-NW 1,00 h 0,102 mm 1,4 UV-I 369 W/m 1,1 C 9,2 C 3,9 km/h (1 Bft)
12.03.2014 10:00 11,9 C 46 % 1032,6 hPa 0,0 l/m 6,7 km/h (2 Bft) O-NO 1,00 h 0,178 mm 1,9 UV-I 330 W/m 0,6 C 10,9 C 11,9 km/h (2 Bft)
12.03.2014 11:00 13,1 C 43 % 1032,5 hPa 0,0 l/m 8,6 km/h (2 Bft) O-NO 1,00 h 0,203 mm 2,5 UV-I 458 W/m 0,8 C 11,6 C 15,1 km/h (3 Bft)
12.03.2014 12:00 14,4 C 44 % 1032,1 hPa 0,0 l/m 6,9 km/h (2 Bft) O 1,00 h 0,279 mm 2,3 UV-I 331 W/m 2,2 C 13,6 C 11,9 km/h (2 Bft)
12.03.2014 13:00 14,8 C 41 % 1031,5 hPa 0,0 l/m 5,8 km/h (2 Bft) O 1,00 h 0,229 mm 2,4 UV-I 413 W/m 1,7 C 14,4 C 10,8 km/h (2 Bft)
12.03.2014 14:00 15,1 C 40 % 1031,0 hPa 0,0 l/m 7,4 km/h (2 Bft) O-SO 1,00 h 0,254 mm 2,0 UV-I 494 W/m 1,6 C 14,3 C 13,2 km/h (3 Bft)
12.03.2014 15:00 14,9 C 40 % 1030,6 hPa 0,0 l/m 7,1 km/h (2 Bft) O-SO 1,00 h 0,305 mm 1,2 UV-I 356 W/m 1,5 C 14,2 C 12,2 km/h (2 Bft)
12.03.2014 16:00 14,3 C 42 % 1030,5 hPa 0,0 l/m 4,9 km/h (1 Bft) O-SO 1,00 h 0,254 mm 0,6 UV-I 194 W/m 1,6 C 14,2 C 9,0 km/h (2 Bft)
12.03.2014 17:00 13,2 C 42 % 1030,4 hPa 0,0 l/m 2,3 km/h (1 Bft) O 0,42 h 0,152 mm 0,0 UV-I 47 W/m 0,7 C 13,2 C 5,3 km/h (1 Bft)
12.03.2014 18:00 11,5 C 48 % 1030,6 hPa 0,0 l/m 1,2 km/h (1 Bft) O-NO 0,00 h 0,051 mm 0,0 UV-I 6 W/m 1,0 C 11,5 C 2,6 km/h (1 Bft)
12.03.2014 19:00 9,4 C 57 % 1030,9 hPa 0,0 l/m 0,7 km/h (0 Bft) NO 0,00 h 0,025 mm 0,0 UV-I 0 W/m 1,4 C 9,4 C 2,4 km/h (1 Bft)
12.03.2014 20:00 7,6 C 64 % 1031,1 hPa 0,0 l/m 0,3 km/h (0 Bft) NO 0,00 h 0,025 mm 0,0 UV-I 0 W/m 1,2 C 7,6 C 1,5 km/h (1 Bft)
12.03.2014 21:00 6,5 C 61 % 1031,1 hPa 0,0 l/m 2,8 km/h (1 Bft) O-NO 0,00 h 0,025 mm 0,0 UV-I 0 W/m -0,4 C 6,5 C 5,1 km/h (1 Bft)
12.03.2014 22:00 7,0 C 53 % 1030,9 hPa 0,0 l/m 3,9 km/h (1 Bft) O-NO 0,00 h 0,025 mm 0,0 UV-I 0 W/m -2,0 C 7,0 C 7,6 km/h (2 Bft)
12.03.2014 23:00 5,7 C 58 % 1031,0 hPa 0,0 l/m 0,5 km/h (0 Bft) NW 0,00 h 0,051 mm 0,0 UV-I 0 W/m -1,9 C 5,7 C 1,6 km/h (1 Bft)
13.03.2014 00:00 3,0 C 71 % 1030,7 hPa 0,0 l/m 0,0 km/h (0 Bft) N 0,00 h 0,025 mm 0,0 UV-I 0 W/m -1,8 C 3,0 C 0,6 km/h (0 Bft)
13.03.2014 01:00 1,6 C 76 % 1030,4 hPa 0,0 l/m 0,0 km/h (0 Bft) N 0,00 h 0,025 mm 0,0 UV-I 0 W/m -2,1 C 1,6 C 0,1 km/h (0 Bft)
13.03.2014 02:00 0,8 C 82 % 1029,9 hPa 0,0 l/m 0,4 km/h (0 Bft) N 0,00 h 0,000 mm 0,0 UV-I 0 W/m -2,0 C 0,8 C 1,1 km/h (0 Bft)
13.03.2014 03:00 0,2 C 86 % 1029,6 hPa 0,0 l/m 2,5 km/h (1 Bft) N 0,00 h 0,000 mm 0,0 UV-I 0 W/m -1,9 C 0,2 C 4,0 km/h (1 Bft)
13.03.2014 04:00 -0,1 C 88 % 1029,6 hPa 0,0 l/m 1,1 km/h (1 Bft) N 0,00 h 0,000 mm 0,0 UV-I 0 W/m -1,9 C -0,1 C 2,2 km/h (1 Bft)
13.03.2014 05:00 -0,8 C 88 % 1029,7 hPa 0,0 l/m 0,2 km/h (0 Bft) N 0,00 h 0,000 mm 0,0 UV-I 0 W/m -2,6 C -0,8 C 0,5 km/h (0 Bft)
13.03.2014 06:00 -1,3 C 89 % 1029,8 hPa 0,0 l/m 0,0 km/h (0 Bft) N 0,00 h 0,000 mm 0,0 UV-I 11 W/m -2,9 C -1,3 C 0,0 km/h (0 Bft)
13.03.2014 07:00 -0,8 C 89 % 1030,0 hPa 0,0 l/m 0,0 km/h (0 Bft) N 0,50 h 0,000 mm 0,5 UV-I 83 W/m -2,4 C -0,8 C 0,1 km/h (0 Bft)
13.03.2014 08:00 4,4 C 72 % 1030,1 hPa 0,0 l/m 0,0 km/h (0 Bft) N 1,00 h 0,025 mm 0,8 UV-I 276 W/m -0,2 C 4,4 C 0,3 km/h (0 Bft)
13.03.2014 09:00 8,3 C 58 % 1029,9 hPa 0,0 l/m 0,4 km/h (0 Bft) N 1,00 h 0,102 mm 1,5 UV-I 384 W/m 0,5 C 8,3 C 1,7 km/h (1 Bft)
13.03.2014 10:00 11,4 C 45 % 1029,7 hPa 0,0 l/m 1,4 km/h (1 Bft) N 1,00 h 0,178 mm 2,1 UV-I 334 W/m -0,2 C 11,4 C 3,0 km/h (1 Bft)
13.03.2014 11:00 13,4 C 40 % 1029,3 hPa 0,0 l/m 2,5 km/h (1 Bft) N-NW 1,00 h 0,178 mm 2,8 UV-I 470 W/m 0,1 C 13,4 C 4,7 km/h (1 Bft)
13.03.2014 12:00 15,1 C 33 % 1028,6 hPa 0,0 l/m 3,8 km/h (1 Bft) W-NW 1,00 h 0,254 mm 2,4 UV-I 315 W/m -1,1 C 15,0 C 6,3 km/h (2 Bft)
13.03.2014 13:00 16,5 C 28 % 1027,8 hPa 0,0 l/m 3,3 km/h (1 Bft) NW 1,00 h 0,203 mm 2,5 UV-I 413 W/m -2,2 C 16,5 C 5,8 km/h (2 Bft)
13.03.2014 14:00 17,1 C 26 % 1027,0 hPa 0,0 l/m 2,6 km/h (1 Bft) SO 1,00 h 0,254 mm 2,2 UV-I 517 W/m -2,3 C 17,1 C 4,9 km/h (1 Bft)
13.03.2014 15:00 17,5 C 28 % 1026,5 hPa 0,0 l/m 1,8 km/h (1 Bft) O-SO 1,00 h 0,305 mm 1,3 UV-I 376 W/m -1,4 C 17,5 C 3,6 km/h (1 Bft)
13.03.2014 16:00 17,7 C 30 % 1026,1 hPa 0,0 l/m 1,7 km/h (1 Bft) N 1,00 h 0,229 mm 0,6 UV-I 209 W/m -0,1 C 17,7 C 3,5 km/h (1 Bft)
13.03.2014 17:00 16,4 C 35 % 1026,0 hPa 0,0 l/m 0,9 km/h (0 Bft) N 0,40 h 0,152 mm 0,0 UV-I 46 W/m 0,9 C 16,4 C 2,1 km/h (1 Bft)
13.03.2014 18:00 13,2 C 46 % 1026,2 hPa 0,0 l/m 0,2 km/h (0 Bft) N 0,00 h 0,051 mm 0,0 UV-I 6 W/m 1,7 C 13,2 C 0,8 km/h (0 Bft)
13.03.2014 19:00 9,5 C 61 % 1026,5 hPa 0,0 l/m 0,1 km/h (0 Bft) N 0,00 h 0,000 mm 0,0 UV-I 0 W/m 2,3 C 9,5 C 0,5 km/h (0 Bft)
13.03.2014 20:00 7,1 C 70 % 1026,8 hPa 0,0 l/m 0,0 km/h (0 Bft) N 0,00 h 0,025 mm 0,0 UV-I 0 W/m 2,1 C 7,1 C 0,0 km/h (0 Bft)
13.03.2014 21:00 5,3 C 78 % 1026,9 hPa 0,0 l/m 0,0 km/h (0 Bft) N 0,00 h 0,025 mm 0,0 UV-I 0 W/m 1,7 C 5,3 C 0,3 km/h (0 Bft)
13.03.2014 22:00 4,1 C 80 % 1027,1 hPa 0,0 l/m 0,0 km/h (0 Bft) N 0,00 h 0,025 mm 0,0 UV-I 0 W/m 1,0 C 4,1 C 0,0 km/h (0 Bft)
13.03.2014 23:00 2,7 C 84 % 1027,2 hPa 0,0 l/m 0,0 km/h (0 Bft) N 0,00 h 0,000 mm 0,0 UV-I 0 W/m 0,3 C 2,7 C 0,1 km/h (0 Bft)
14.03.2014 00:00 1,7 C 86 % 1027,1 hPa 0,0 l/m 0,0 km/h (0 Bft) N 0,00 h 0,000 mm 0,0 UV-I 0 W/m -0,4 C 1,7 C 0,0 km/h (0 Bft)
14.03.2014 01:00 0,8 C 88 % 1027,0 hPa 0,0 l/m 0,0 km/h (0 Bft) N 0,00 h 0,000 mm 0,0 UV-I 0 W/m -0,9 C 0,8 C 0,2 km/h (0 Bft)
14.03.2014 02:00 0,2 C 89 % 1027,1 hPa 0,0 l/m 0,0 km/h (0 Bft) N 0,00 h 0,000 mm 0,0 UV-I 0 W/m -1,4 C 0,2 C 0,0 km/h (0 Bft)
14.03.2014 03:00 -0,5 C 90 % 1026,9 hPa 0,0 l/m 0,0 km/h (0 Bft) N 0,00 h 0,000 mm 0,0 UV-I 0 W/m -1,9 C -0,5 C 0,0 km/h (0 Bft)
14.03.2014 04:00 -1,0 C 91 % 1027,1 hPa 0,0 l/m 0,0 km/h (0 Bft) N 0,00 h 0,000 mm 0,0 UV-I 0 W/m -2,3 C -1,0 C 0,0 km/h (0 Bft)
14.03.2014 05:00 -1,4 C 92 % 1027,0 hPa 0,0 l/m 0,0 km/h (0 Bft) N 0,00 h 0,000 mm 0,0 UV-I 0 W/m -2,5 C -1,4 C 0,1 km/h (0 Bft)
14.03.2014 06:00 -1,7 C 92 % 1027,0 hPa 0,0 l/m 0,0 km/h (0 Bft) N 0,00 h 0,000 mm 0,0 UV-I 13 W/m -2,8 C -1,7 C 0,0 km/h (0 Bft)
14.03.2014 07:00 -1,1 C 92 % 1027,1 hPa 0,0 l/m 0,0 km/h (0 Bft) N 0,53 h 0,000 mm 0,5 UV-I 88 W/m -2,2 C -1,1 C 0,0 km/h (0 Bft)
14.03.2014 08:00 4,0 C 79 % 1027,3 hPa 0,0 l/m 0,2 km/h (0 Bft) N 1,00 h 0,025 mm 0,8 UV-I 281 W/m 0,6 C 4,0 C 0,9 km/h (0 Bft)
14.03.2014 09:00 7,8 C 69 % 1027,0 hPa 0,0 l/m 0,6 km/h (0 Bft) N 1,00 h 0,102 mm 1,5 UV-I 397 W/m 2,4 C 7,8 C 1,6 km/h (1 Bft)
14.03.2014 10:00 11,6 C 55 % 1026,4 hPa 0,0 l/m 2,0 km/h (1 Bft) W-NW 1,00 h 0,178 mm 2,0 UV-I 365 W/m 2,9 C 11,6 C 3,9 km/h (1 Bft)
14.03.2014 11:00 14,1 C 44 % 1025,7 hPa 0,0 l/m 2,2 km/h (1 Bft) N-NW 1,00 h 0,203 mm 2,6 UV-I 494 W/m 2,2 C 14,1 C 4,0 km/h (1 Bft)
14.03.2014 12:00 15,1 C 38 % 1025,0 hPa 0,0 l/m 3,3 km/h (1 Bft) NW 1,00 h 0,254 mm 2,4 UV-I 324 W/m 0,9 C 15,1 C 5,7 km/h (1 Bft)
14.03.2014 13:00 15,7 C 35 % 1024,2 hPa 0,0 l/m 4,1 km/h (1 Bft) S 1,00 h 0,203 mm 2,5 UV-I 419 W/m 0,2 C 15,5 C 6,9 km/h (2 Bft)
14.03.2014 14:00 16,8 C 35 % 1023,3 hPa 0,0 l/m 4,8 km/h (1 Bft) W-SW 1,00 h 0,254 mm 2,0 UV-I 502 W/m 1,2 C 16,6 C 7,7 km/h (2 Bft)
14.03.2014 15:00 17,0 C 34 % 1022,6 hPa 0,0 l/m 5,2 km/h (1 Bft) W-SW 1,00 h 0,305 mm 1,2 UV-I 374 W/m 1,1 C 16,8 C 8,1 km/h (2 Bft)
14.03.2014 16:00 16,4 C 30 % 1021,9 hPa 0,0 l/m 5,9 km/h (2 Bft) W 1,00 h 0,254 mm 0,6 UV-I 216 W/m -1,3 C 16,0 C 9,0 km/h (2 Bft)
14.03.2014 17:00 15,2 C 33 % 1021,5 hPa 0,0 l/m 4,9 km/h (1 Bft) W-SW 0,47 h 0,356 mm 0,0 UV-I 53 W/m -1,1 C 15,0 C 7,7 km/h (2 Bft)
14.03.2014 18:00 12,9 C 41 % 1021,4 hPa 0,0 l/m 2,5 km/h (1 Bft) W-NW 0,00 h 0,076 mm 0,0 UV-I 7 W/m -0,2 C 12,9 C 4,3 km/h (1 Bft)
14.03.2014 19:00 9,8 C 52 % 1021,3 hPa 0,0 l/m 0,1 km/h (0 Bft) NW 0,00 h 0,025 mm 0,0 UV-I 0 W/m 0,4 C 9,8 C 0,5 km/h (0 Bft)
14.03.2014 20:00 6,4 C 67 % 1021,1 hPa 0,0 l/m 0,3 km/h (0 Bft) NW 0,00 h 0,025 mm 0,0 UV-I 0 W/m 0,7 C 6,4 C 1,0 km/h (0 Bft)
14.03.2014 21:00 4,6 C 74 % 1021,1 hPa 0,0 l/m 0,0 km/h (0 Bft) N 0,00 h 0,025 mm 0,0 UV-I 0 W/m 0,4 C 4,6 C 0,2 km/h (0 Bft)
14.03.2014 22:00 3,0 C 80 % 1020,6 hPa 0,0 l/m 0,5 km/h (0 Bft) N-NW 0,00 h 0,025 mm 0,0 UV-I 0 W/m -0,1 C 3,0 C 1,3 km/h (1 Bft)
14.03.2014 23:00 2,2 C 83 % 1019,5 hPa 0,0 l/m 2,0 km/h (1 Bft) O-SO 0,00 h 0,000 mm 0,0 UV-I 0 W/m -0,3 C 2,2 C 3,4 km/h (1 Bft)
15.03.2014 00:00 4,4 C 77 % 1018,7 hPa 0,0 l/m 3,8 km/h (1 Bft) S-SO 0,00 h 0,000 mm 0,0 UV-I 0 W/m 0,8 C 4,4 C 6,1 km/h (2 Bft)
15.03.2014 01:00 5,4 C 72 % 1017,5 hPa 0,0 l/m 4,4 km/h (1 Bft) S-SW 0,00 h 0,025 mm 0,0 UV-I 0 W/m 0,8 C 5,4 C 7,0 km/h (2 Bft)
15.03.2014 02:00 5,7 C 72 % 1016,6 hPa 0,0 l/m 4,7 km/h (1 Bft) S 0,00 h 0,025 mm 0,0 UV-I 0 W/m 1,2 C 5,5 C 7,1 km/h (2 Bft)
15.03.2014 03:00 5,3 C 74 % 1015,7 hPa 0,0 l/m 3,4 km/h (1 Bft) S 0,00 h 0,025 mm 0,0 UV-I 0 W/m 1,1 C 5,2 C 5,7 km/h (1 Bft)
15.03.2014 04:00 7,6 C 67 % 1014,7 hPa 0,0 l/m 12,9 km/h (3 Bft) W 0,00 h 0,000 mm 0,0 UV-I 0 W/m 1,8 C 3,5 C 20,0 km/h (4 Bft)
15.03.2014 05:00 8,1 C 62 % 1014,1 hPa 0,0 l/m 16,3 km/h (3 Bft) W 0,00 h 0,025 mm 0,0 UV-I 0 W/m 1,4 C 2,4 C 25,0 km/h (4 Bft)
15.03.2014 06:00 7,9 C 64 % 1014,0 hPa 0,0 l/m 18,1 km/h (3 Bft) W 0,00 h 0,078 mm 0,0 UV-I 10 W/m 1,4 C 1,3 C 27,0 km/h (4 Bft)
15.03.2014 07:00 7,6 C 65 % 1013,9 hPa 0,0 l/m 17,9 km/h (3 Bft) W 0,00 h 0,076 mm 0,0 UV-I 31 W/m 1,6 C 1,1 C 27,2 km/h (4 Bft)
15.03.2014 08:00 7,4 C 68 % 1014,1 hPa 0,0 l/m 15,6 km/h (3 Bft) W 0,00 h 0,076 mm 0,0 UV-I 28 W/m 1,9 C 1,8 C 23,3 km/h (4 Bft)
15.03.2014 09:00 7,1 C 73 % 1013,8 hPa 0,0 l/m 13,6 km/h (3 Bft) W-SW 0,00 h 0,051 mm 0,0 UV-I 9 W/m 2,6 C 2,5 C 20,7 km/h (4 Bft)
15.03.2014 10:00 6,3 C 83 % 1013,8 hPa 0,0 l/m 12,8 km/h (3 Bft) W-SW 0,00 h 0,051 mm 0,0 UV-I 22 W/m 3,5 C 2,0 C 19,6 km/h (3 Bft)
15.03.2014 11:00 6,0 C 88 % 1014,1 hPa 0,0 l/m 12,7 km/h (3 Bft) W 0,00 h 0,025 mm 0,0 UV-I 15 W/m 4,2 C 1,6 C 19,0 km/h (3 Bft)
15.03.2014 12:00 6,6 C 86 % 1014,8 hPa 0,0 l/m 12,5 km/h (3 Bft) W-NW 0,62 h 0,025 mm 0,9 UV-I 83 W/m 4,5 C 2,6 C 19,6 km/h (3 Bft)
15.03.2014 13:00 8,0 C 74 % 1014,8 hPa 0,0 l/m 14,7 km/h (3 Bft) N-NW 1,00 h 0,051 mm 0,9 UV-I 161 W/m 3,7 C 3,1 C 22,4 km/h (4 Bft)
15.03.2014 14:00 8,3 C 62 % 1015,3 hPa 0,0 l/m 18,1 km/h (3 Bft) NW 1,00 h 0,102 mm 1,3 UV-I 213 W/m 1,5 C 2,0 C 27,0 km/h (4 Bft)
15.03.2014 15:00 8,1 C 61 % 1015,7 hPa 0,0 l/m 19,8 km/h (4 Bft) NW 0,95 h 0,152 mm 0,9 UV-I 161 W/m 0,9 C 1,0 C 29,0 km/h (5 Bft)
15.03.2014 16:00 7,6 C 63 % 1016,2 hPa 0,0 l/m 16,3 km/h (3 Bft) NW 0,85 h 0,152 mm 0,5 UV-I 85 W/m 1,0 C 1,9 C 23,3 km/h (4 Bft)
15.03.2014 17:00 7,0 C 64 % 1016,5 hPa 0,0 l/m 15,8 km/h (3 Bft) NW 0,12 h 0,102 mm 0,0 UV-I 36 W/m 0,8 C 1,4 C 23,3 km/h (4 Bft)
15.03.2014 18:00 6,4 C 64 % 1017,3 hPa 0,0 l/m 11,0 km/h (2 Bft) W 0,00 h 0,076 mm 0,0 UV-I 5 W/m 0,1 C 3,1 C 16,8 km/h (3 Bft)
15.03.2014 19:00 6,1 C 67 % 1017,7 hPa 0,0 l/m 11,4 km/h (2 Bft) W 0,00 h 0,051 mm 0,0 UV-I 0 W/m 0,4 C 2,4 C 16,9 km/h (3 Bft)
15.03.2014 20:00 5,7 C 71 % 1017,8 hPa 0,0 l/m 12,7 km/h (3 Bft) W 0,00 h 0,051 mm 0,0 UV-I 0 W/m 0,9 C 1,4 C 18,3 km/h (3 Bft)
15.03.2014 21:00 5,8 C 71 % 1017,9 hPa 0,0 l/m 14,6 km/h (3 Bft) W 0,00 h 0,051 mm 0,0 UV-I 0 W/m 1,1 C 0,5 C 22,4 km/h (4 Bft)
15.03.2014 22:00 5,8 C 74 % 1017,7 hPa 0,0 l/m 15,5 km/h (3 Bft) W 0,00 h 0,051 mm 0,0 UV-I 0 W/m 1,6 C -0,1 C 23,0 km/h (4 Bft)
15.03.2014 23:00 5,5 C 77 % 1017,2 hPa 0,0 l/m 14,3 km/h (3 Bft) W 0,00 h 0,051 mm 0,0 UV-I 0 W/m 1,8 C 0,2 C 21,6 km/h (4 Bft)
16.03.2014 00:00 5,6 C 76 % 1016,4 hPa 0,2 l/m 17,1 km/h (3 Bft) W 0,00 h 0,025 mm 0,0 UV-I 0 W/m 1,8 C -1,0 C 25,4 km/h (4 Bft)
16.03.2014 01:00 5,0 C 84 % 1015,9 hPa 0,0 l/m 15,0 km/h (3 Bft) W 0,00 h 0,051 mm 0,0 UV-I 0 W/m 2,6 C -0,7 C 22,4 km/h (4 Bft)
16.03.2014 02:00 5,0 C 88 % 1014,8 hPa 0,0 l/m 16,1 km/h (3 Bft) W 0,00 h 0,025 mm 0,0 UV-I 0 W/m 3,1 C -1,4 C 24,9 km/h (4 Bft)
16.03.2014 03:00 4,9 C 90 % 1013,7 hPa 0,0 l/m 15,7 km/h (3 Bft) W 0,00 h 0,025 mm 0,0 UV-I 0 W/m 3,4 C -1,2 C 24,0 km/h (4 Bft)
16.03.2014 04:00 5,3 C 89 % 1013,2 hPa 0,0 l/m 17,1 km/h (3 Bft) W 0,00 h 0,000 mm 0,0 UV-I 0 W/m 3,7 C -1,4 C 26,2 km/h (4 Bft)
16.03.2014 05:00 5,7 C 90 % 1012,9 hPa 0,0 l/m 17,6 km/h (3 Bft) W 0,00 h 0,025 mm 0,0 UV-I 0 W/m 4,1 C -1,2 C 26,7 km/h (4 Bft)
16.03.2014 06:00 6,1 C 90 % 1013,0 hPa 0,0 l/m 15,8 km/h (3 Bft) W 0,00 h 0,025 mm 0,0 UV-I 0 W/m 4,6 C 0,2 C 23,9 km/h (4 Bft)
16.03.2014 07:00 6,6 C 89 % 1013,4 hPa 0,0 l/m 14,5 km/h (3 Bft) W 0,00 h 0,025 mm 0,0 UV-I 8 W/m 4,9 C 1,5 C 21,9 km/h (4 Bft)
16.03.2014 08:00 6,9 C 89 % 1013,7 hPa 0,0 l/m 14,8 km/h (3 Bft) W 0,00 h 0,025 mm 0,0 UV-I 13 W/m 5,3 C 1,7 C 22,9 km/h (4 Bft)
16.03.2014 09:00 7,3 C 90 % 1013,9 hPa 0,0 l/m 15,5 km/h (3 Bft) W 0,00 h 0,025 mm 0,0 UV-I 23 W/m 5,7 C 1,8 C 24,3 km/h (4 Bft)
16.03.2014 10:00 7,6 C 90 % 1013,9 hPa 0,0 l/m 17,3 km/h (3 Bft) W 0,43 h 0,025 mm 0,6 UV-I 48 W/m 6,1 C 1,4 C 26,1 km/h (4 Bft)
16.03.2014 11:00 7,9 C 89 % 1014,0 hPa 0,0 l/m 17,3 km/h (3 Bft) W-SW 0,50 h 0,025 mm 0,8 UV-I 58 W/m 6,2 C 1,7 C 27,6 km/h (4 Bft)
16.03.2014 12:00 7,8 C 90 % 1014,6 hPa 0,0 l/m 13,2 km/h (3 Bft) W 0,03 h 0,051 mm 0,6 UV-I 27 W/m 6,3 C 3,5 C 19,8 km/h (3 Bft)
16.03.2014 13:00 7,8 C 90 % 1014,8 hPa 0,0 l/m 15,9 km/h (3 Bft) W-SW 0,00 h 0,025 mm 0,0 UV-I 29 W/m 6,2 C 2,2 C 24,1 km/h (4 Bft)
16.03.2014 14:00 7,8 C 91 % 1014,9 hPa 0,0 l/m 16,1 km/h (3 Bft) W-SW 0,03 h 0,025 mm 0,0 UV-I 28 W/m 6,4 C 2,2 C 24,2 km/h (4 Bft)
16.03.2014 15:00 8,4 C 89 % 1015,1 hPa 0,0 l/m 16,2 km/h (3 Bft) W-SW 0,00 h 0,025 mm 0,0 UV-I 30 W/m 6,7 C 2,9 C 24,3 km/h (4 Bft)
16.03.2014 16:00 8,8 C 87 % 1015,4 hPa 0,0 l/m 12,7 km/h (3 Bft) W-SW 0,00 h 0,025 mm 0,0 UV-I 12 W/m 6,8 C 4,9 C 19,9 km/h (4 Bft)
16.03.2014 17:00 8,9 C 87 % 1016,1 hPa 0,0 l/m 12,2 km/h (2 Bft) W-SW 0,00 h 0,025 mm 0,0 UV-I 5 W/m 6,9 C 5,2 C 18,5 km/h (3 Bft)
16.03.2014 18:00 8,5 C 89 % 1016,6 hPa 0,0 l/m 12,7 km/h (3 Bft) W-SW 0,00 h 0,025 mm 0,0 UV-I 0 W/m 6,8 C 4,5 C 18,7 km/h (3 Bft)
16.03.2014 19:00 8,6 C 89 % 1017,1 hPa 0,0 l/m 12,9 km/h (3 Bft) W 0,00 h 0,025 mm 0,0 UV-I 0 W/m 6,9 C 4,5 C 19,3 km/h (3 Bft)
16.03.2014 20:00 8,8 C 88 % 1017,2 hPa 0,0 l/m 13,4 km/h (3 Bft) W-SW 0,00 h 0,025 mm 0,0 UV-I 0 W/m 7,0 C 4,6 C 20,7 km/h (4 Bft)
16.03.2014 21:00 9,1 C 86 % 1017,4 hPa 0,0 l/m 12,7 km/h (3 Bft) W 0,00 h 0,025 mm 0,0 UV-I 0 W/m 6,9 C 5,2 C 18,5 km/h (3 Bft)
16.03.2014 22:00 9,1 C 85 % 1017,6 hPa 0,0 l/m 13,6 km/h (3 Bft) W 0,00 h 0,025 mm 0,0 UV-I 0 W/m 6,7 C 4,8 C 20,0 km/h (4 Bft)
16.03.2014 23:00 8,8 C 84 % 1017,6 hPa 0,0 l/m 12,2 km/h (3 Bft) W-NW 0,00 h 0,025 mm 0,0 UV-I 0 W/m 6,2 C 5,2 C 18,7 km/h (3 Bft)
Min-Datum _ 11.03.14 11.03.14 16.03.14 - 10.03.14 - - - - - 13.03.14 16.03.14 10.03.14
_ Min-Zeit 07:08 15:23 05:14 - 00:00 - - - - - 13:06 01:58 00:01
Minimum _ -2,5 C 22 % 1012,7 hPa - 0,0 km/h (0 Bft) - - - - - -5,4 C -4,7 C 0,0 km/h (0 Bft)
Max-Datum _ 11.03.14 14.03.14 12.03.14 16.03.14 15.03.14 - 10.03.14 11.03.14 13.03.14 14.03.14 16.03.14 11.03.14 16.03.14
_ Max-Zeit 15:09 07:44 09:07 00:24 14:50 - 07:54 15:00 11:44 11:48 20:22 15:09 11:27
Maximum _ 18,5 C 95 % 1032,9 hPa 0,2 l/m 32,2 km/h
NW (5 Bft)
- 0,07 h 0,330 mm 3,2 UV-I 629 W/m 7,1 C 18,5 C 46,7 km/h
W (6 Bft)
Durchschnitt _ 7,2 C 66 % 1024,3 hPa #0,2 l/m 5,8 km/h (1 Bft) W #54:52 h #13,192 mm 1,5 UV-I 204 W/m 0,5 C 5,8 C 9,2 km/h (2 Bft)